Time;durP1;ratioP1;P1;durP2;ratioP2;P2;SDS_P1;SDS_P2;PMS_P1;PMS_P2;Temp;Humidity;BMP_temperature;BMP_pressure;BME280_temperature;BME280_humidity;BME280_pressure;Samples;Min_cycle;Max_cycle;Signal;HPM_P1;HPM_P2
2023/05/26 00:01:22;;;;;;;;;;;;;;;;;;5045914;28;19962;-59
2023/05/26 00:03:48;;;;;;;;;;;;;;;;;;5048790;28;19940;-59
2023/05/26 00:06:14;;;;;;;;;;;;;;;;;;5043808;28;20024;-59
2023/05/26 00:08:40;;;;;;;;;;;;;;;;;;5049152;28;19959;-59
2023/05/26 00:11:06;;;;;;;;;;;;;;;;;;5043083;28;19960;-59
2023/05/26 00:13:32;;;;;;;;;;;;;;;;;;5047158;28;19936;-59
2023/05/26 00:15:58;;;;;;;;;;;;;;;;;;5046780;28;20013;-59
2023/05/26 00:18:27;;;;;;;;;;;;;;;;;;5044044;28;20042;-59
2023/05/26 00:20:53;;;;;;;;;;;;;;;;;;5047080;28;19958;-58
2023/05/26 00:23:19;;;;;;;;;;;;;;;;;;5048686;28;19963;-58
2023/05/26 00:25:45;;;;;;;;;;;;;;;;;;5045785;28;19958;-58
2023/05/26 00:28:12;;;;;;;;;;;;;;;;;;5045866;28;19924;-58
2023/05/26 00:30:37;;;;;;;;;;;;;;;;;;5045568;28;19956;-58
2023/05/26 00:33:03;;;;;;;;;;;;;;;;;;5048567;28;20374;-58
2023/05/26 00:35:29;;;;;;;;;;;;;;;;;;5047566;28;20403;-58
2023/05/26 00:37:55;;;;;;;;;;;;;;;;;;5043123;28;19970;-57
2023/05/26 00:40:21;;;;;;;;;;;;;;;;;;5046141;28;19951;-57
2023/05/26 00:42:47;;;;;;;;;;;;;;;;;;5046497;28;19956;-57
2023/05/26 00:45:13;;;;;;;;;;;;;;;;;;5046265;28;19959;-57
2023/05/26 00:47:40;;;;;;;;;;;;;;;;;;5048062;28;19921;-57
2023/05/26 00:50:06;;;;;;;;;;;;;;;;;;5047911;28;20015;-57
2023/05/26 00:52:32;;;;;;;;;;;;;;;;;;5047897;28;20007;-57
2023/05/26 00:54:57;;;;;;;;;;;;;;;;;;5043026;28;20001;-57
2023/05/26 00:57:23;;;;;;;;;;;;;;;;;;5044561;28;20357;-58
2023/05/26 00:59:49;;;;;;;;;;;;;;;;;;5045644;28;19951;-57
2023/05/26 01:02:15;;;;;;;;;;;;;;;;;;5041841;28;20010;-58
2023/05/26 01:04:41;;;;;;;;;;;;;;;;;;5045623;28;20345;-58
2023/05/26 01:07:07;;;;;;;;;;;;;;;;;;5046408;28;19944;-57
2023/05/26 01:09:33;;;;;;;;;;;;;;;;;;5044670;28;20264;-58
2023/05/26 01:12:01;;;;;;;;;;;;;;;;;;5045033;28;20024;-58
2023/05/26 01:14:27;;;;;;;;;;;;;;;;;;5045230;28;20422;-58
2023/05/26 01:16:53;;;;;;;;;;;;;;;;;;5046596;28;19958;-58
2023/05/26 01:19:19;;;;;;;;;;;;;;;;;;5045325;28;20403;-58
2023/05/26 01:21:45;;;;;;;;;;;;;;;;;;5044676;28;19984;-57
2023/05/26 01:24:11;;;;;;;;;;;;;;;;;;5043922;28;19920;-58
2023/05/26 01:26:37;;;;;;;;;;;;;;;;;;5041557;28;19913;-58
2023/05/26 01:29:03;;;;;;;;;;;;;;;;;;5048242;28;20438;-57
2023/05/26 01:31:33;;;;;;;;;;;;;;;;;;5044913;28;19921;-58
2023/05/26 01:33:59;;;;;;;;;;;;;;;;;;5041253;28;19971;-58
2023/05/26 01:36:25;;;;;;;;;;;;;;;;;;5046530;28;20371;-57
2023/05/26 01:38:51;;;;;;;;;;;;;;;;;;5046116;28;20332;-58
2023/05/26 01:41:17;;;;;;;;;;;;;;;;;;5041419;28;20418;-58
2023/05/26 01:43:43;;;;;;;;;;;;;;;;;;5047063;28;19955;-58
2023/05/26 01:46:09;;;;;;;;;;;;;;;;;;5045947;28;19948;-58
2023/05/26 01:48:35;;;;;;;;;;;;;;;;;;5046063;28;19912;-58
2023/05/26 01:51:01;;;;;;;;;;;;;;;;;;5044600;28;19908;-57
2023/05/26 01:53:27;;;;;;;;;;;;;;;;;;5045024;28;19979;-57
2023/05/26 01:55:53;;;;;;;;;;;;;;;;;;5041841;28;19974;-57
2023/05/26 01:58:19;;;;;;;;;;;;;;;;;;5044933;28;19964;-57
2023/05/26 02:00:45;;;;;;;;;;;;;;;;;;5026663;28;20487;-57
2023/05/26 02:03:10;;;;;;;;;;;;;;;;;;5045548;28;19952;-58
2023/05/26 02:05:36;;;;;;;;;;;;;;;;;;5043818;28;20010;-57
2023/05/26 02:08:02;;;;;;;;;;;;;;;;;;5039786;28;19944;-57
2023/05/26 02:10:28;;;;;;;;;;;;;;;;;;5042856;28;19963;-57
2023/05/26 02:12:54;;;;;;;;;;;;;;;;;;5043621;28;19971;-57
2023/05/26 02:15:20;;;;;;;;;;;;;;;;;;5044965;28;19991;-57
2023/05/26 02:17:47;;;;;;;;;;;;;;;;;;5046972;28;19958;-57
2023/05/26 02:20:13;;;;;;;;;;;;;;;;;;5042256;28;19944;-57
2023/05/26 02:22:39;;;;;;;;;;;;;;;;;;5027809;28;19917;-57
2023/05/26 02:25:06;;;;;;;;;;;;;;;;;;5044807;28;20015;-57
2023/05/26 02:27:31;;;;;;;;;;;;;;;;;;5044429;28;19915;-57
2023/05/26 02:29:58;;;;;;;;;;;;;;;;;;5048071;28;20011;-57
2023/05/26 02:32:25;;;;;;;;;;;;;;;;;;5049127;28;20382;-57
2023/05/26 02:34:51;;;;;;;;;;;;;;;;;;5046318;28;19912;-58
2023/05/26 02:37:19;;;;;;;;;;;;;;;;;;5048494;28;19919;-57
2023/05/26 02:39:45;;;;;;;;;;;;;;;;;;5042751;28;20355;-58
2023/05/26 02:42:11;;;;;;;;;;;;;;;;;;5049227;28;19915;-58
2023/05/26 02:44:37;;;;;;;;;;;;;;;;;;5048675;28;20356;-57
2023/05/26 02:47:03;;;;;;;;;;;;;;;;;;5047729;28;19970;-57
2023/05/26 02:49:29;;;;;;;;;;;;;;;;;;5047749;28;19942;-57
2023/05/26 02:51:55;;;;;;;;;;;;;;;;;;5047601;28;20084;-57
2023/05/26 02:54:21;;;;;;;;;;;;;;;;;;5046400;28;19995;-57
2023/05/26 02:56:50;;;;;;;;;;;;;;;;;;5048068;28;19952;-57
2023/05/26 02:59:16;;;;;;;;;;;;;;;;;;5044631;28;20453;-58
2023/05/26 03:01:42;;;;;;;;;;;;;;;;;;5048393;28;19948;-58
2023/05/26 03:04:07;;;;;;;;;;;;;;;;;;5048813;28;20093;-58
2023/05/26 03:06:34;;;;;;;;;;;;;;;;;;5050135;28;19960;-58
2023/05/26 03:09:03;;;;;;;;;;;;;;;;;;5049033;28;20269;-58
2023/05/26 03:11:29;;;;;;;;;;;;;;;;;;5028653;28;19928;-58
2023/05/26 03:13:55;;;;;;;;;;;;;;;;;;5049901;28;20329;-58
2023/05/26 03:16:23;;;;;;;;;;;;;;;;;;5047842;28;20284;-58
2023/05/26 03:18:49;;;;;;;;;;;;;;;;;;5047630;28;19925;-57
2023/05/26 03:21:16;;;;;;;;;;;;;;;;;;5042756;28;20449;-58
2023/05/26 03:23:42;;;;;;;;;;;;;;;;;;5049043;28;20403;-57
2023/05/26 03:26:08;;;;;;;;;;;;;;;;;;5045490;28;19951;-58
2023/05/26 03:28:34;;;;;;;;;;;;;;;;;;5051972;28;19959;-58
2023/05/26 03:31:00;;;;;;;;;;;;;;;;;;5047971;28;20344;-58
2023/05/26 03:33:26;;;;;;;;;;;;;;;;;;5046164;28;19953;-58
2023/05/26 03:35:53;;;;;;;;;;;;;;;;;;5047687;28;20354;-58
2023/05/26 03:38:19;;;;;;;;;;;;;;;;;;5048788;28;19989;-58
2023/05/26 03:40:44;;;;;;;;;;;;;;;;;;5046655;28;19985;-58
2023/05/26 03:43:10;;;;;;;;;;;;;;;;;;5048180;28;20059;-58
2023/05/26 03:45:36;;;;;;;;;;;;;;;;;;5048796;28;19966;-58
2023/05/26 03:48:03;;;;;;;;;;;;;;;;;;5048642;28;20001;-58
2023/05/26 03:50:29;;;;;;;;;;;;;;;;;;5029656;28;20001;-58
2023/05/26 03:52:55;;;;;;;;;;;;;;;;;;5048415;28;19913;-55
2023/05/26 03:55:21;;;;;;;;;;;;;;;;;;5046967;28;20000;-55
2023/05/26 03:57:47;;;;;;;;;;;;;;;;;;5048251;28;19955;-58
2023/05/26 04:00:13;;;;;;;;;;;;;;;;;;5046130;28;20569;-58
2023/05/26 04:02:39;;;;;;;;;;;;;;;;;;5047427;28;19916;-58
2023/05/26 04:05:05;;;;;;;;;;;;;;;;;;5047860;28;20054;-58
2023/05/26 04:07:31;;;;;;;;;;;;;;;;;;5046522;28;20004;-59
2023/05/26 04:09:57;;;;;;;;;;;;;;;;;;5045435;28;19931;-58
2023/05/26 04:12:24;;;;;;;;;;;;;;;;;;5043559;28;19916;-58
2023/05/26 04:14:53;;;;;;;;;;;;;;;;;;5047104;28;19919;-58
2023/05/26 04:17:19;;;;;;;;;;;;;;;;;;5044535;28;19995;-58
2023/05/26 04:19:45;;;;;;;;;;;;;;;;;;5047035;28;19996;-58
2023/05/26 04:22:11;;;;;;;;;;;;;;;;;;5046826;28;20321;-58
2023/05/26 04:24:37;;;;;;;;;;;;;;;;;;5048042;28;20337;-58
2023/05/26 04:27:03;;;;;;;;;;;;;;;;;;5046495;28;20295;-58
2023/05/26 04:29:29;;;;;;;;;;;;;;;;;;5043458;28;20343;-58
2023/05/26 04:31:55;;;;;;;;;;;;;;;;;;5047746;28;19944;-58
2023/05/26 04:34:23;;;;;;;;;;;;;;;;;;5046381;28;19971;-58
2023/05/26 04:36:49;;;;;;;;;;;;;;;;;;5047278;28;19935;-58
2023/05/26 04:39:15;;;;;;;;;;;;;;;;;;5041581;28;20353;-57
2023/05/26 04:41:43;;;;;;;;;;;;;;;;;;5046802;28;19913;-58
2023/05/26 04:44:11;;;;;;;;;;;;;;;;;;5042621;28;20007;-58
2023/05/26 04:46:37;;;;;;;;;;;;;;;;;;5043501;28;19974;-58
2023/05/26 04:49:03;;;;;;;;;;;;;;;;;;5045981;28;19913;-58
2023/05/26 04:51:31;;;;;;;;;;;;;;;;;;5047793;28;19932;-58
2023/05/26 04:53:57;;;;;;;;;;;;;;;;;;5049287;28;20118;-58
2023/05/26 04:56:23;;;;;;;;;;;;;;;;;;5048509;28;19923;-58
2023/05/26 04:58:50;;;;;;;;;;;;;;;;;;5047898;28;19916;-56
2023/05/26 05:01:17;;;;;;;;;;;;;;;;;;5046872;28;20367;-56
2023/05/26 05:03:43;;;;;;;;;;;;;;;;;;5048502;28;20244;-56
2023/05/26 05:06:10;;;;;;;;;;;;;;;;;;5048453;28;19908;-56
2023/05/26 05:08:36;;;;;;;;;;;;;;;;;;5049004;28;20332;-57
2023/05/26 05:11:03;;;;;;;;;;;;;;;;;;5046711;28;19909;-56
2023/05/26 05:13:29;;;;;;;;;;;;;;;;;;5029244;28;20004;-58
2023/05/26 05:15:55;;;;;;;;;;;;;;;;;;5048959;28;20419;-59
2023/05/26 05:18:21;;;;;;;;;;;;;;;;;;5043759;28;19913;-59
2023/05/26 05:20:47;;;;;;;;;;;;;;;;;;5042158;28;19912;-56
2023/05/26 05:23:13;;;;;;;;;;;;;;;;;;5043524;28;19958;-59
2023/05/26 05:25:40;;;;;;;;;;;;;;;;;;5043961;28;19912;-59
2023/05/26 05:28:06;;;;;;;;;;;;;;;;;;5041325;28;19928;-59
2023/05/26 05:30:32;;;;;;;;;;;;;;;;;;5044332;28;20004;-59
2023/05/26 05:32:58;;;;;;;;;;;;;;;;;;5041645;28;19943;-55
2023/05/26 05:35:24;;;;;;;;;;;;;;;;;;5038328;28;19987;-58
2023/05/26 05:37:50;;;;;;;;;;;;;;;;;;5041975;28;20021;-58
2023/05/26 05:40:17;;;;;;;;;;;;;;;;;;5045968;28;19998;-56
2023/05/26 05:42:43;;;;;;;;;;;;;;;;;;5045666;28;19982;-55
2023/05/26 05:45:09;;;;;;;;;;;;;;;;;;5043238;28;19916;-57
2023/05/26 05:47:35;;;;;;;;;;;;;;;;;;5045574;28;19924;-56
2023/05/26 05:50:01;;;;;;;;;;;;;;;;;;5038589;28;19909;-58
2023/05/26 05:52:27;;;;;;;;;;;;;;;;;;5043837;28;20435;-57
2023/05/26 05:54:53;;;;;;;;;;;;;;;;;;5042167;28;20641;-58
2023/05/26 05:57:19;;;;;;;;;;;;;;;;;;5042716;28;19947;-57
2023/05/26 05:59:45;;;;;;;;;;;;;;;;;;5042209;28;20024;-57
2023/05/26 06:02:11;;;;;;;;;;;;;;;;;;5024656;28;19909;-58
2023/05/26 06:04:37;;;;;;;;;;;;;;;;;;5043802;28;19986;-58
2023/05/26 06:07:03;;;;;;;;;;;;;;;;;;5046973;28;19909;-58
2023/05/26 06:09:29;;;;;;;;;;;;;;;;;;5049086;28;19916;-56
2023/05/26 06:11:55;;;;;;;;;;;;;;;;;;5046993;28;19924;-56
2023/05/26 06:14:21;;;;;;;;;;;;;;;;;;5047511;28;20360;-55
2023/05/26 06:16:47;;;;;;;;;;;;;;;;;;5032038;28;19913;-55
2023/05/26 06:19:13;;;;;;;;;;;;;;;;;;5048714;28;19919;-55
2023/05/26 06:21:40;;;;;;;;;;;;;;;;;;5050267;28;19999;-59
2023/05/26 06:24:06;;;;;;;;;;;;;;;;;;5045914;28;20293;-59
2023/05/26 06:26:32;;;;;;;;;;;;;;;;;;5041777;28;19909;-58
2023/05/26 06:28:58;;;;;;;;;;;;;;;;;;5041756;28;19996;-58
2023/05/26 06:31:25;;;;;;;;;;;;;;;;;;5044570;28;19927;-57
2023/05/26 06:33:51;;;;;;;;;;;;;;;;;;5048246;28;20012;-57
2023/05/26 06:36:17;;;;;;;;;;;;;;;;;;5044239;28;20004;-58
2023/05/26 06:38:43;;;;;;;;;;;;;;;;;;5047694;28;19960;-58
2023/05/26 06:41:09;;;;;;;;;;;;;;;;;;5046578;28;19912;-58
2023/05/26 06:43:35;;;;;;;;;;;;;;;;;;5043418;28;20450;-58
2023/05/26 06:46:01;;;;;;;;;;;;;;;;;;5049258;28;19968;-58
2023/05/26 06:48:27;;;;;;;;;;;;;;;;;;5040460;28;19959;-56
2023/05/26 06:50:53;;;;;;;;;;;;;;;;;;5043756;28;19967;-57
2023/05/26 06:53:19;;;;;;;;;;;;;;;;;;5045232;28;19955;-55
2023/05/26 06:55:45;;;;;;;;;;;;;;;;;;5045726;28;19934;-55
2023/05/26 06:58:11;;;;;;;;;;;;;;;;;;5043362;28;20351;-56
2023/05/26 07:00:37;;;;;;;;;;;;;;;;;;5043547;28;20391;-58
2023/05/26 07:03:03;;;;;;;;;;;;;;;;;;5043297;28;20301;-60
2023/05/26 07:05:29;;;;;;;;;;;;;;;;;;5048122;28;20062;-61
2023/05/26 07:07:55;;;;;;;;;;;;;;;;;;5040880;28;19955;-58
2023/05/26 07:10:21;;;;;;;;;;;;;;;;;;5041003;28;19916;-59
2023/05/26 07:12:47;;;;;;;;;;;;;;;;;;5042548;28;20034;-57
2023/05/26 07:15:13;;;;;;;;;;;;;;;;;;5038803;28;19951;-58
2023/05/26 07:17:39;;;;;;;;;;;;;;;;;;5046393;28;20385;-57
2023/05/26 07:20:05;;;;;;;;;;;;;;;;;;5045355;28;19925;-56
2023/05/26 07:22:31;;;;;;;;;;;;;;;;;;5047899;28;19978;-60
2023/05/26 07:24:57;;;;;;;;;;;;;;;;;;5045010;28;19966;-56
2023/05/26 07:27:23;;;;;;;;;;;;;;;;;;5044834;28;19960;-55
2023/05/26 07:29:49;;;;;;;;;;;;;;;;;;5050067;28;19971;-56
2023/05/26 07:32:15;;;;;;;;;;;;;;;;;;5048806;28;19975;-56
2023/05/26 07:34:41;;;;;;;;;;;;;;;;;;5036236;28;20014;-57
2023/05/26 07:37:07;;;;;;;;;;;;;;;;;;5044200;28;20022;-56
2023/05/26 07:39:33;;;;;;;;;;;;;;;;;;5046207;28;20428;-57
2023/05/26 07:41:59;;;;;;;;;;;;;;;;;;5044008;28;19956;-59
2023/05/26 07:44:26;;;;;;;;;;;;;;;;;;5044599;28;20383;-56
2023/05/26 07:46:52;;;;;;;;;;;;;;;;;;5051071;28;19995;-55
2023/05/26 07:49:18;;;;;;;;;;;;;;;;;;5048157;28;19962;-56
2023/05/26 07:51:45;;;;;;;;;;;;;;;;;;5048275;28;19948;-59
2023/05/26 07:54:11;;;;;;;;;;;;;;;;;;5050158;28;19954;-58
2023/05/26 07:56:37;;;;;;;;;;;;;;;;;;5048662;28;20019;-58
2023/05/26 07:59:03;;;;;;;;;;;;;;;;;;5050271;28;19992;-59
2023/05/26 08:01:29;;;;;;;;;;;;;;;;;;5050062;28;19957;-59
2023/05/26 08:03:55;;;;;;;;;;;;;;;;;;5048342;28;19952;-60
2023/05/26 08:06:21;;;;;;;;;;;;;;;;;;5044990;28;20407;-60
2023/05/26 08:08:47;;;;;;;;;;;;;;;;;;5045519;28;19916;-61
2023/05/26 08:11:13;;;;;;;;;;;;;;;;;;5045212;28;20005;-60
2023/05/26 08:13:39;;;;;;;;;;;;;;;;;;5043535;28;19916;-60
2023/05/26 08:16:06;;;;;;;;;;;;;;;;;;5045484;28;19915;-57
2023/05/26 08:18:32;;;;;;;;;;;;;;;;;;5042515;28;20439;-55
2023/05/26 08:20:58;;;;;;;;;;;;;;;;;;5041876;28;19991;-54
2023/05/26 08:23:24;;;;;;;;;;;;;;;;;;5046532;28;19912;-52
2023/05/26 08:25:50;;;;;;;;;;;;;;;;;;5044575;28;20255;-56
2023/05/26 08:28:16;;;;;;;;;;;;;;;;;;5046395;28;20015;-55
2023/05/26 08:30:42;;;;;;;;;;;;;;;;;;5046897;28;20004;-57
2023/05/26 08:33:08;;;;;;;;;;;;;;;;;;5047390;28;19919;-54
2023/05/26 08:35:34;;;;;;;;;;;;;;;;;;5048659;28;20246;-58
2023/05/26 08:38:00;;;;;;;;;;;;;;;;;;5049378;28;20002;-59
2023/05/26 08:40:26;;;;;;;;;;;;;;;;;;5033257;28;20121;-57
2023/05/26 08:42:53;;;;;;;;;;;;;;;;;;5040409;28;20316;-59
2023/05/26 08:45:19;;;;;;;;;;;;;;;;;;5043796;28;20372;-59
2023/05/26 08:47:45;;;;;;;;;;;;;;;;;;5048367;28;19991;-57
2023/05/26 08:50:11;;;;;;;;;;;;;;;;;;5045614;28;20544;-58
2023/05/26 08:52:40;;;;;;;;;;;;;;;;;;5046670;28;20200;-57
2023/05/26 08:55:07;;;;;;;;;;;;;;;;;;5042765;28;19912;-58
2023/05/26 08:57:33;;;;;;;;;;;;;;;;;;5046903;28;19919;-58
2023/05/26 08:59:59;;;;;;;;;;;;;;;;;;5040896;28;19944;-56
2023/05/26 09:02:25;;;;;;;;;;;;;;;;;;5043678;28;20283;-56
2023/05/26 09:04:52;;;;;;;;;;;;;;;;;;5043633;28;20239;-57
2023/05/26 09:07:18;;;;;;;;;;;;;;;;;;5042457;28;19958;-56
2023/05/26 09:09:44;;;;;;;;;;;;;;;;;;5040367;28;19921;-56
2023/05/26 09:12:10;;;;;;;;;;;;;;;;;;5043652;28;20055;-56
2023/05/26 09:14:36;;;;;;;;;;;;;;;;;;5043320;28;20003;-56
2023/05/26 09:17:02;;;;;;;;;;;;;;;;;;5043992;28;20316;-55
2023/05/26 09:22:13;;;;;;;;;;;;;;;;;;5045906;28;20011;-56
2023/05/26 09:24:40;;;;;;;;;;;;;;;;;;5044230;28;20351;-56
2023/05/26 09:27:06;;;;;;;;;;;;;;;;;;5044871;28;19919;-57
2023/05/26 09:29:32;;;;;;;;;;;;;;;;;;5044976;28;20359;-59
2023/05/26 09:31:58;;;;;;;;;;;;;;;;;;5041787;28;19944;-57
2023/05/26 09:34:24;;;;;;;;;;;;;;;;;;5043930;28;19955;-57
2023/05/26 09:36:51;;;;;;;;;;;;;;;;;;5038298;28;19948;-56
2023/05/26 09:39:17;;;;;;;;;;;;;;;;;;5047998;28;19917;-56
2023/05/26 09:41:43;;;;;;;;;;;;;;;;;;5046590;28;20394;-56
2023/05/26 09:44:09;;;;;;;;;;;;;;;;;;5049759;28;19913;-55
2023/05/26 09:46:36;;;;;;;;;;;;;;;;;;5050845;28;20223;-56
2023/05/26 09:49:02;;;;;;;;;;;;;;;;;;5047240;28;20455;-56
2023/05/26 09:51:29;;;;;;;;;;;;;;;;;;5048979;28;20118;-59
2023/05/26 09:53:55;;;;;;;;;;;;;;;;;;5048329;28;19916;-58
2023/05/26 09:56:21;;;;;;;;;;;;;;;;;;5049321;28;19912;-59
2023/05/26 09:58:47;;;;;;;;;;;;;;;;;;5045406;28;19908;-56
2023/05/26 10:01:13;;;;;;;;;;;;;;;;;;5046337;28;19939;-56
2023/05/26 10:03:39;;;;;;;;;;;;;;;;;;5048561;28;20341;-56
2023/05/26 10:06:05;;;;;;;;;;;;;;;;;;5048953;28;19947;-56
2023/05/26 10:08:31;;;;;;;;;;;;;;;;;;5047837;28;19993;-56
2023/05/26 10:10:57;;;;;;;;;;;;;;;;;;5045171;28;19951;-56
2023/05/26 10:13:23;;;;;;;;;;;;;;;;;;5031337;28;20392;-56
2023/05/26 10:15:49;;;;;;;;;;;;;;;;;;5044705;28;20523;-56
2023/05/26 10:18:15;;;;;;;;;;;;;;;;;;5050415;28;20051;-57
2023/05/26 10:20:41;;;;;;;;;;;;;;;;;;5049553;28;20446;-56
2023/05/26 10:23:07;;;;;;;;;;;;;;;;;;5047774;28;19952;-57
2023/05/26 10:25:34;;;;;;;;;;;;;;;;;;5048167;28;19958;-57
2023/05/26 10:28:00;;;;;;;;;;;;;;;;;;5047068;28;20453;-57
2023/05/26 10:30:26;;;;;;;;;;;;;;;;;;5048959;28;20287;-57
2023/05/26 10:32:52;;;;;;;;;;;;;;;;;;5049429;28;20283;-57
2023/05/26 10:35:17;;;;;;;;;;;;;;;;;;5048537;28;19911;-59
2023/05/26 10:37:43;;;;;;;;;;;;;;;;;;5048798;28;19952;-57
2023/05/26 10:40:10;;;;;;;;;;;;;;;;;;5047602;28;19997;-57
2023/05/26 10:42:36;;;;;;;;;;;;;;;;;;5048440;28;19988;-57
2023/05/26 10:45:02;;;;;;;;;;;;;;;;;;5047926;28;20388;-57
2023/05/26 10:47:27;;;;;;;;;;;;;;;;;;5046790;28;19912;-57
2023/05/26 10:49:53;;;;;;;;;;;;;;;;;;5044276;28;19912;-57
2023/05/26 10:52:19;;;;;;;;;;;;;;;;;;5049399;28;19960;-57
2023/05/26 10:54:47;;;;;;;;;;;;;;;;;;5049396;28;20026;-57
2023/05/26 10:57:13;;;;;;;;;;;;;;;;;;5049251;28;19913;-57
2023/05/26 10:59:39;;;;;;;;;;;;;;;;;;5046854;28;19952;-57
2023/05/26 11:02:05;;;;;;;;;;;;;;;;;;5044122;28;20422;-57
2023/05/26 11:04:31;;;;;;;;;;;;;;;;;;5025369;28;20427;-57
2023/05/26 11:07:01;;;;;;;;;;;;;;;;;;5036693;28;19995;-56
2023/05/26 11:09:27;;;;;;;;;;;;;;;;;;5040879;28;20030;-56
2023/05/26 11:11:53;;;;;;;;;;;;;;;;;;5050252;28;20187;-55
2023/05/26 11:14:19;;;;;;;;;;;;;;;;;;5044162;28;19949;-56
2023/05/26 11:16:45;;;;;;;;;;;;;;;;;;5046215;28;19920;-56
2023/05/26 11:19:11;;;;;;;;;;;;;;;;;;5044328;28;19931;-57
2023/05/26 11:21:37;;;;;;;;;;;;;;;;;;5048028;28;20011;-56
2023/05/26 11:24:03;;;;;;;;;;;;;;;;;;5047223;28;19947;-54
2023/05/26 11:26:32;;;;;;;;;;;;;;;;;;5047564;28;19909;-57
2023/05/26 11:28:58;;;;;;;;;;;;;;;;;;5043553;28;19920;-56
2023/05/26 11:31:27;;;;;;;;;;;;;;;;;;5043131;28;19952;-57
2023/05/26 11:33:53;;;;;;;;;;;;;;;;;;5046155;28;20387;-57
2023/05/26 11:36:19;;;;;;;;;;;;;;;;;;5042333;28;19955;-57
2023/05/26 11:38:45;;;;;;;;;;;;;;;;;;5044177;28;20475;-59
2023/05/26 11:41:11;;;;;;;;;;;;;;;;;;5045337;28;19924;-56
2023/05/26 11:43:37;;;;;;;;;;;;;;;;;;5045787;28;20374;-56
2023/05/26 11:46:03;;;;;;;;;;;;;;;;;;5046123;28;20371;-53
2023/05/26 11:48:29;;;;;;;;;;;;;;;;;;5041755;28;19988;-59
2023/05/26 11:50:55;;;;;;;;;;;;;;;;;;5022968;28;20034;-59
2023/05/26 11:53:21;;;;;;;;;;;;;;;;;;5039751;28;19924;-59
2023/05/26 11:55:47;;;;;;;;;;;;;;;;;;5044267;28;19927;-58
2023/05/26 11:58:13;;;;;;;;;;;;;;;;;;5041327;28;19984;-59
2023/05/26 12:00:39;;;;;;;;;;;;;;;;;;5041597;28;19917;-59
2023/05/26 12:03:05;;;;;;;;;;;;;;;;;;5043881;28;19919;-59
2023/05/26 12:05:31;;;;;;;;;;;;;;;;;;5048253;28;19912;-59
2023/05/26 12:07:57;;;;;;;;;;;;;;;;;;5049944;28;20022;-58
2023/05/26 12:10:23;;;;;;;;;;;;;;;;;;5049022;28;19996;-59
2023/05/26 12:12:49;;;;;;;;;;;;;;;;;;5050094;28;19956;-59
2023/05/26 12:15:15;;;;;;;;;;;;;;;;;;5049530;28;19924;-59
2023/05/26 12:17:41;;;;;;;;;;;;;;;;;;5049829;28;19959;-58
2023/05/26 12:20:08;;;;;;;;;;;;;;;;;;5049338;28;19955;-59
2023/05/26 12:22:35;;;;;;;;;;;;;;;;;;5049855;28;19924;-59
2023/05/26 12:25:01;;;;;;;;;;;;;;;;;;5049149;28;20359;-59
2023/05/26 12:27:27;;;;;;;;;;;;;;;;;;5049634;28;19963;-59
2023/05/26 12:29:53;;;;;;;;;;;;;;;;;;5049207;28;19917;-59
2023/05/26 12:32:19;;;;;;;;;;;;;;;;;;5049235;28;20361;-59
2023/05/26 12:34:45;;;;;;;;;;;;;;;;;;5049161;28;19978;-58
2023/05/26 12:37:11;;;;;;;;;;;;;;;;;;5049361;28;19952;-59
2023/05/26 12:39:36;;;;;;;;;;;;;;;;;;5048754;28;19944;-59
2023/05/26 12:42:02;;;;;;;;;;;;;;;;;;5049598;28;19967;-59
2023/05/26 12:44:28;;;;;;;;;;;;;;;;;;5049432;28;20356;-59
2023/05/26 12:46:54;;;;;;;;;;;;;;;;;;5049086;28;20328;-59
2023/05/26 12:49:20;;;;;;;;;;;;;;;;;;5049095;28;19917;-59
2023/05/26 12:51:49;;;;;;;;;;;;;;;;;;5049804;28;20245;-59
2023/05/26 12:54:15;;;;;;;;;;;;;;;;;;5048664;28;20329;-59
2023/05/26 12:56:41;;;;;;;;;;;;;;;;;;5049436;28;20367;-59
2023/05/26 12:59:08;;;;;;;;;;;;;;;;;;5049595;28;20378;-60
2023/05/26 13:01:34;;;;;;;;;;;;;;;;;;5048533;28;20370;-60
2023/05/26 13:04:00;;;;;;;;;;;;;;;;;;5048661;28;19917;-59
2023/05/26 13:06:26;;;;;;;;;;;;;;;;;;5048532;28;19940;-59
2023/05/26 13:08:52;;;;;;;;;;;;;;;;;;5049286;28;20368;-59
2023/05/26 13:11:18;;;;;;;;;;;;;;;;;;5048029;28;20013;-60
2023/05/26 13:13:44;;;;;;;;;;;;;;;;;;5048949;28;19966;-60
2023/05/26 13:16:10;;;;;;;;;;;;;;;;;;5048785;28;19916;-59
2023/05/26 13:18:37;;;;;;;;;;;;;;;;;;5048285;28;19932;-59
2023/05/26 13:21:03;;;;;;;;;;;;;;;;;;5048874;28;19911;-60
2023/05/26 13:23:30;;;;;;;;;;;;;;;;;;5048963;28;19995;-58
2023/05/26 13:25:56;;;;;;;;;;;;;;;;;;5047943;28;19998;-59
2023/05/26 13:28:22;;;;;;;;;;;;;;;;;;5048498;28;19958;-60
2023/05/26 13:30:48;;;;;;;;;;;;;;;;;;5048650;28;20288;-59
2023/05/26 13:33:14;;;;;;;;;;;;;;;;;;5047994;28;20069;-59
2023/05/26 13:35:40;;;;;;;;;;;;;;;;;;5030729;28;19977;-59
2023/05/26 13:38:06;;;;;;;;;;;;;;;;;;5048920;28;19917;-59
2023/05/26 13:40:32;;;;;;;;;;;;;;;;;;5047847;28;20321;-60
2023/05/26 13:42:58;;;;;;;;;;;;;;;;;;5048928;28;19909;-59
2023/05/26 13:45:24;;;;;;;;;;;;;;;;;;5048569;28;20369;-59
2023/05/26 13:47:50;;;;;;;;;;;;;;;;;;5048117;28;19974;-59
2023/05/26 13:50:16;;;;;;;;;;;;;;;;;;5048818;28;19908;-60
2023/05/26 13:52:42;;;;;;;;;;;;;;;;;;5048592;28;19998;-60
2023/05/26 13:55:08;;;;;;;;;;;;;;;;;;5029789;28;19979;-59
2023/05/26 13:57:35;;;;;;;;;;;;;;;;;;5048905;28;20359;-60
2023/05/26 14:00:01;;;;;;;;;;;;;;;;;;5048866;28;19908;-60
2023/05/26 14:02:27;;;;;;;;;;;;;;;;;;5029550;28;19909;-60
2023/05/26 14:04:53;;;;;;;;;;;;;;;;;;5049094;28;19951;-60
2023/05/26 14:07:19;;;;;;;;;;;;;;;;;;5048917;28;19906;-60
2023/05/26 14:09:45;;;;;;;;;;;;;;;;;;5048086;28;20387;-60
2023/05/26 14:12:12;;;;;;;;;;;;;;;;;;5048941;28;20031;-60
2023/05/26 14:14:38;;;;;;;;;;;;;;;;;;5048940;28;19905;-61
2023/05/26 14:17:05;;;;;;;;;;;;;;;;;;5048476;28;20013;-59
2023/05/26 14:19:31;;;;;;;;;;;;;;;;;;5039586;28;19960;-58
2023/05/26 14:21:57;;;;;;;;;;;;;;;;;;5028780;28;19916;-58
2023/05/26 14:24:23;;;;;;;;;;;;;;;;;;5028739;28;19936;-60
2023/05/26 14:26:49;;;;;;;;;;;;;;;;;;5030778;28;19930;-58
2023/05/26 14:29:15;;;;;;;;;;;;;;;;;;5032537;28;19952;-56
2023/05/26 14:31:41;;;;;;;;;;;;;;;;;;5033875;28;19939;-55
2023/05/26 14:34:07;;;;;;;;;;;;;;;;;;5052079;28;19940;-55
2023/05/26 14:36:33;;;;;;;;;;;;;;;;;;5051992;28;19999;-56
2023/05/26 14:39:00;;;;;;;;;;;;;;;;;;5052083;28;20027;-56
2023/05/26 14:41:29;;;;;;;;;;;;;;;;;;5050904;28;19936;-57
2023/05/26 14:43:55;;;;;;;;;;;;;;;;;;5052261;28;19996;-57
2023/05/26 14:46:21;;;;;;;;;;;;;;;;;;5051566;28;20374;-57
2023/05/26 14:48:47;;;;;;;;;;;;;;;;;;5033378;28;19944;-55
2023/05/26 14:51:13;;;;;;;;;;;;;;;;;;5051393;28;19909;-55
2023/05/26 14:53:39;;;;;;;;;;;;;;;;;;5051533;28;19963;-55
2023/05/26 14:56:05;;;;;;;;;;;;;;;;;;5049856;28;19974;-56
2023/05/26 14:58:31;;;;;;;;;;;;;;;;;;5049765;28;19944;-55
2023/05/26 15:00:57;;;;;;;;;;;;;;;;;;5051446;28;20078;-56
2023/05/26 15:03:23;;;;;;;;;;;;;;;;;;5050923;28;19952;-55
2023/05/26 15:05:50;;;;;;;;;;;;;;;;;;5050900;28;19951;-55
2023/05/26 15:08:16;;;;;;;;;;;;;;;;;;5051270;28;20348;-55
2023/05/26 15:10:42;;;;;;;;;;;;;;;;;;5050515;28;19909;-54
2023/05/26 15:13:08;;;;;;;;;;;;;;;;;;5051550;28;19955;-54
2023/05/26 15:15:37;;;;;;;;;;;;;;;;;;5051547;28;19958;-55
2023/05/26 15:18:03;;;;;;;;;;;;;;;;;;5051201;28;19915;-55
2023/05/26 15:20:30;;;;;;;;;;;;;;;;;;5050415;28;20684;-54
2023/05/26 15:22:56;;;;;;;;;;;;;;;;;;5050995;28;20302;-54
2023/05/26 15:25:22;;;;;;;;;;;;;;;;;;5050437;28;19974;-54
2023/05/26 15:27:48;;;;;;;;;;;;;;;;;;5050487;28;19909;-54
2023/05/26 15:30:14;;;;;;;;;;;;;;;;;;5050864;28;20408;-54
2023/05/26 15:32:40;;;;;;;;;;;;;;;;;;5050185;28;19920;-54
2023/05/26 15:35:06;;;;;;;;;;;;;;;;;;5050764;28;19904;-55
2023/05/26 15:37:33;;;;;;;;;;;;;;;;;;5050849;28;19928;-55
2023/05/26 15:39:59;;;;;;;;;;;;;;;;;;5049887;28;19905;-54
2023/05/26 15:42:25;;;;;;;;;;;;;;;;;;5050840;28;19916;-54
2023/05/26 15:44:51;;;;;;;;;;;;;;;;;;5051196;28;20375;-54
2023/05/26 15:47:17;;;;;;;;;;;;;;;;;;5050067;28;19909;-54
2023/05/26 15:49:43;;;;;;;;;;;;;;;;;;5050638;28;20023;-53
2023/05/26 15:52:09;;;;;;;;;;;;;;;;;;5050911;28;19948;-54
2023/05/26 15:54:36;;;;;;;;;;;;;;;;;;5049257;28;20416;-58
2023/05/26 15:57:02;;;;;;;;;;;;;;;;;;5050618;28;19951;-56
2023/05/26 15:59:28;;;;;;;;;;;;;;;;;;5050487;28;19959;-60
2023/05/26 16:01:54;;;;;;;;;;;;;;;;;;5032500;28;19989;-60
2023/05/26 16:04:20;;;;;;;;;;;;;;;;;;5049983;28;19982;-60
2023/05/26 16:06:46;;;;;;;;;;;;;;;;;;5050744;28;19962;-58
2023/05/26 16:09:13;;;;;;;;;;;;;;;;;;5049541;28;19952;-57
2023/05/26 16:11:39;;;;;;;;;;;;;;;;;;5050577;28;19919;-57
2023/05/26 16:14:05;;;;;;;;;;;;;;;;;;5049498;28;19944;-58
2023/05/26 16:16:31;;;;;;;;;;;;;;;;;;5049891;28;20316;-54
2023/05/26 16:18:57;;;;;;;;;;;;;;;;;;5048330;28;20327;-53
2023/05/26 16:21:23;;;;;;;;;;;;;;;;;;5045838;28;20422;-54
2023/05/26 16:23:49;;;;;;;;;;;;;;;;;;5042879;28;19952;-53
2023/05/26 16:26:15;;;;;;;;;;;;;;;;;;5045502;28;19966;-53
2023/05/26 16:28:41;;;;;;;;;;;;;;;;;;5049003;28;19978;-54
2023/05/26 16:31:07;;;;;;;;;;;;;;;;;;5049413;28;19912;-55
2023/05/26 16:33:33;;;;;;;;;;;;;;;;;;5041404;28;20051;-54
2023/05/26 16:35:59;;;;;;;;;;;;;;;;;;5049855;28;19948;-54
2023/05/26 16:38:28;;;;;;;;;;;;;;;;;;5049532;28;19912;-55
2023/05/26 16:40:54;;;;;;;;;;;;;;;;;;5048970;28;19943;-53